createdAt,value
2017-08-02T00:02:20.295Z,6.83
2017-08-02T00:04:47.989Z,6.53
2017-08-02T00:07:15.648Z,6.93
2017-08-02T00:09:43.292Z,6.00
2017-08-02T00:12:10.944Z,6.53
2017-08-02T00:14:38.580Z,6.37
2017-08-02T00:17:06.192Z,6.33
2017-08-02T00:19:33.844Z,5.90
2017-08-02T00:22:01.467Z,6.50
2017-08-02T00:24:29.109Z,6.57
2017-08-02T00:26:57.209Z,6.60
2017-08-02T00:29:24.858Z,6.37
2017-08-02T00:31:52.498Z,6.20
2017-08-02T00:34:20.214Z,6.10
2017-08-02T00:36:47.868Z,6.10
2017-08-02T00:39:15.473Z,6.40
2017-08-02T00:41:43.090Z,6.73
2017-08-02T00:44:10.740Z,6.70
2017-08-02T00:46:38.439Z,7.30
2017-08-02T00:49:06.071Z,6.00
2017-08-02T00:51:35.071Z,6.60
2017-08-02T00:54:02.706Z,5.83
2017-08-02T00:56:31.119Z,6.67
2017-08-02T00:58:58.801Z,7.00
2017-08-02T01:01:26.390Z,6.20
2017-08-02T01:03:54.035Z,7.23
2017-08-02T01:06:21.673Z,7.57
2017-08-02T01:08:50.802Z,7.80
2017-08-02T01:11:19.008Z,7.20
2017-08-02T01:13:46.625Z,6.47
2017-08-02T01:16:14.279Z,7.57
2017-08-02T01:18:41.893Z,6.10
2017-08-02T01:21:09.509Z,6.93
2017-08-02T01:23:37.108Z,7.20
2017-08-02T01:26:04.777Z,6.87
2017-08-02T01:28:32.388Z,6.80
2017-08-02T01:31:00.019Z,7.00
2017-08-02T01:33:27.619Z,7.10
2017-08-02T01:35:55.470Z,6.90
2017-08-02T01:38:23.071Z,7.80
2017-08-02T01:40:50.719Z,7.00
2017-08-02T01:43:18.332Z,7.40
2017-08-02T01:45:45.960Z,6.80
2017-08-02T01:48:13.562Z,7.30
2017-08-02T01:50:41.202Z,7.17
2017-08-02T01:53:08.827Z,6.73
2017-08-02T01:55:36.464Z,7.47
2017-08-02T01:58:04.110Z,7.27
2017-08-02T02:00:31.741Z,7.57
2017-08-02T02:02:59.358Z,7.30
2017-08-02T02:05:26.992Z,7.20
2017-08-02T02:07:54.619Z,7.47
2017-08-02T02:10:22.259Z,7.50
2017-08-02T02:12:49.855Z,7.37
2017-08-02T02:15:17.491Z,7.30
2017-08-02T02:17:45.139Z,7.70
2017-08-02T02:20:12.765Z,8.00
2017-08-02T02:22:40.383Z,7.70
2017-08-02T02:25:08.037Z,8.13
2017-08-02T02:27:35.660Z,8.17
2017-08-02T02:30:03.333Z,8.30
2017-08-02T02:32:31.189Z,8.10
2017-08-02T02:34:58.823Z,9.00
2017-08-02T02:37:26.426Z,7.50
2017-08-02T02:39:54.348Z,7.90
2017-08-02T02:42:21.974Z,8.17
2017-08-02T02:44:49.601Z,8.23
2017-08-02T02:47:17.565Z,7.90
2017-08-02T02:49:45.269Z,8.40
2017-08-02T02:52:12.946Z,8.23
2017-08-02T02:54:40.646Z,8.77
2017-08-02T02:57:08.283Z,7.57
2017-08-02T02:59:35.920Z,6.93
2017-08-02T03:02:03.553Z,6.30
2017-08-02T03:04:31.155Z,5.67
2017-08-02T03:06:58.798Z,4.23
2017-08-02T03:09:26.403Z,4.87
2017-08-02T03:11:59.870Z,4.90
2017-08-02T03:14:27.476Z,5.13
2017-08-02T03:16:55.136Z,4.50
2017-08-02T03:19:24.004Z,4.20
2017-08-02T03:21:51.846Z,4.70
2017-08-02T03:24:19.478Z,4.40
2017-08-02T03:26:48.071Z,4.80
2017-08-02T03:29:15.710Z,4.90
2017-08-02T03:31:43.430Z,4.87
2017-08-02T03:34:11.043Z,4.30
2017-08-02T03:36:38.689Z,4.53
2017-08-02T03:39:06.314Z,4.70
2017-08-02T03:41:33.960Z,4.30
2017-08-02T03:44:01.604Z,3.90
2017-08-02T03:46:29.430Z,3.37
2017-08-02T03:48:57.070Z,4.10
2017-08-02T03:51:24.720Z,3.97
2017-08-02T03:53:52.351Z,4.00
2017-08-02T03:56:19.980Z,4.47
2017-08-02T03:58:47.576Z,4.07
2017-08-02T04:01:15.213Z,4.77
2017-08-02T04:03:42.825Z,4.50
2017-08-02T04:06:10.463Z,4.63
2017-08-02T04:08:38.079Z,4.20
2017-08-02T04:11:05.711Z,3.83
2017-08-02T04:13:33.298Z,3.53
2017-08-02T04:16:00.930Z,4.10
2017-08-02T04:18:28.634Z,4.20
2017-08-02T04:20:56.258Z,3.47
2017-08-02T04:23:23.895Z,3.80
2017-08-02T04:25:51.522Z,4.17
2017-08-02T04:28:19.204Z,3.77
2017-08-02T04:30:46.843Z,4.10
2017-08-02T04:33:14.498Z,4.20
2017-08-02T04:35:42.114Z,3.63
2017-08-02T04:38:10.047Z,3.67
2017-08-02T04:40:37.657Z,4.03
2017-08-02T04:43:05.304Z,4.00
2017-08-02T04:45:34.028Z,4.10
2017-08-02T04:48:03.166Z,3.83
2017-08-02T04:50:32.056Z,3.33
2017-08-02T04:52:59.696Z,3.60
2017-08-02T04:55:27.715Z,3.73
2017-08-02T04:57:55.381Z,3.43
2017-08-02T05:00:23.219Z,3.80
2017-08-02T05:02:50.919Z,3.50
2017-08-02T05:05:18.546Z,3.97
2017-08-02T05:07:46.177Z,3.50
2017-08-02T05:10:14.455Z,4.00
2017-08-02T05:12:42.082Z,3.47
2017-08-02T05:15:09.717Z,3.10
2017-08-02T05:17:37.483Z,3.47
2017-08-02T05:20:05.101Z,3.50
2017-08-02T05:22:32.889Z,3.67
2017-08-02T05:25:00.488Z,3.17
2017-08-02T05:27:28.147Z,2.83
2017-08-02T05:29:55.768Z,3.30
2017-08-02T05:32:23.426Z,3.03
2017-08-02T05:34:51.066Z,4.17
2017-08-02T05:37:18.713Z,3.47
2017-08-02T05:39:47.385Z,3.37
2017-08-02T05:42:15.035Z,3.47
2017-08-02T05:44:43.759Z,3.43
2017-08-02T05:47:11.378Z,3.10
2017-08-02T05:49:39.015Z,3.47
2017-08-02T05:52:06.630Z,3.37
2017-08-02T05:54:34.266Z,3.30
2017-08-02T05:57:01.856Z,3.50
2017-08-02T05:59:29.508Z,3.43
2017-08-02T06:01:57.123Z,3.23
2017-08-02T06:04:24.794Z,3.50
2017-08-02T06:06:52.441Z,3.57
2017-08-02T06:09:20.065Z,3.37
2017-08-02T06:11:47.696Z,4.53
2017-08-02T06:14:15.353Z,2.97
2017-08-02T06:16:42.979Z,3.67
2017-08-02T06:19:10.614Z,3.13
2017-08-02T06:21:38.225Z,3.30
2017-08-02T06:24:05.884Z,3.00
2017-08-02T06:26:33.492Z,3.20
2017-08-02T06:29:01.123Z,4.03
2017-08-02T06:31:29.219Z,3.07
2017-08-02T06:33:57.216Z,3.13
2017-08-02T06:36:24.848Z,2.93
2017-08-02T06:38:52.487Z,3.10
2017-08-02T06:41:20.156Z,3.90
2017-08-02T06:43:47.960Z,3.20
2017-08-02T06:46:15.577Z,3.27
2017-08-02T06:48:43.256Z,2.97
2017-08-02T06:51:10.882Z,3.40
2017-08-02T06:53:38.553Z,2.63
2017-08-02T06:56:06.235Z,3.67
2017-08-02T06:58:34.476Z,3.30
2017-08-02T07:01:02.091Z,3.27
2017-08-02T07:03:29.860Z,3.10
2017-08-02T07:05:57.528Z,3.10
2017-08-02T07:08:25.155Z,3.47
2017-08-02T07:10:52.879Z,3.20
2017-08-02T07:13:20.795Z,2.77
2017-08-02T07:15:48.428Z,3.50
2017-08-02T07:18:16.094Z,3.53
2017-08-02T07:20:43.943Z,3.33
2017-08-02T07:23:11.646Z,3.27
2017-08-02T07:25:39.287Z,3.80
2017-08-02T07:28:06.877Z,3.43
2017-08-02T07:30:34.797Z,3.93
2017-08-02T07:33:02.418Z,3.33
2017-08-02T07:35:30.717Z,2.90
2017-08-02T07:37:58.423Z,3.20
2017-08-02T07:40:26.048Z,3.13
2017-08-02T07:42:54.150Z,2.80
2017-08-02T07:45:21.795Z,2.53
2017-08-02T07:47:49.419Z,2.90
2017-08-02T07:50:17.041Z,2.90
2017-08-02T07:52:44.696Z,3.20
2017-08-02T07:55:12.333Z,3.07
2017-08-02T07:57:39.932Z,2.80
2017-08-02T08:00:07.559Z,3.07
2017-08-02T08:02:35.180Z,3.00
2017-08-02T08:05:02.819Z,3.10
2017-08-02T08:07:30.448Z,3.13
2017-08-02T08:09:58.085Z,3.07
2017-08-02T08:12:25.806Z,2.90
2017-08-02T08:14:53.486Z,3.00
2017-08-02T08:17:21.195Z,3.20
2017-08-02T08:19:48.893Z,3.43
2017-08-02T08:22:16.532Z,2.87
2017-08-02T08:24:44.300Z,3.00
2017-08-02T08:27:11.919Z,3.03
2017-08-02T08:29:39.597Z,3.20
2017-08-02T08:32:07.273Z,3.17
2017-08-02T08:34:34.944Z,3.60
2017-08-02T08:37:02.605Z,3.47
2017-08-02T08:39:30.251Z,3.60
2017-08-02T08:41:58.040Z,2.73
2017-08-02T08:44:26.103Z,3.37
2017-08-02T08:46:53.722Z,3.07
2017-08-02T08:49:21.339Z,3.53
2017-08-02T08:51:49.114Z,3.23
2017-08-02T08:54:16.754Z,3.40
2017-08-02T08:56:44.424Z,3.20
2017-08-02T08:59:12.041Z,2.80
2017-08-02T09:01:39.670Z,3.33
2017-08-02T09:04:07.286Z,3.93
2017-08-02T09:06:34.926Z,3.77
2017-08-02T09:09:02.690Z,3.37
2017-08-02T09:11:30.376Z,3.33
2017-08-02T09:13:58.066Z,3.53
2017-08-02T09:16:25.867Z,3.57
2017-08-02T09:18:53.542Z,3.20
2017-08-02T09:21:21.198Z,2.80
2017-08-02T09:23:49.726Z,2.97
2017-08-02T09:26:17.391Z,3.23
2017-08-02T09:28:45.009Z,2.80
2017-08-02T09:31:12.668Z,3.37
2017-08-02T09:33:40.280Z,3.30
2017-08-02T09:36:07.919Z,3.37
2017-08-02T09:38:35.618Z,3.30
2017-08-02T09:41:03.373Z,3.57
2017-08-02T09:43:30.984Z,3.50
2017-08-02T09:45:58.640Z,3.40
2017-08-02T09:48:26.402Z,3.60
2017-08-02T09:50:54.026Z,2.77
2017-08-02T09:53:21.642Z,3.13
2017-08-02T09:55:49.299Z,3.50
2017-08-02T09:58:17.010Z,3.30
2017-08-02T10:00:44.770Z,3.23
2017-08-02T10:03:12.348Z,3.80
2017-08-02T10:05:39.978Z,4.20
2017-08-02T10:08:07.595Z,4.10
2017-08-02T10:10:35.335Z,3.10
2017-08-02T10:13:02.963Z,3.30
2017-08-02T10:15:30.571Z,3.50
2017-08-02T10:17:58.204Z,4.17
2017-08-02T10:20:25.870Z,3.67
2017-08-02T10:22:53.552Z,4.03
2017-08-02T10:25:21.176Z,3.73
2017-08-02T10:27:48.820Z,3.87
2017-08-02T10:30:16.473Z,3.67
2017-08-02T10:32:44.202Z,4.43
2017-08-02T10:35:11.829Z,3.70
2017-08-02T10:37:39.603Z,3.83
2017-08-02T10:40:07.175Z,3.67
2017-08-02T10:42:34.797Z,3.53
2017-08-02T10:45:02.439Z,3.70
2017-08-02T10:47:30.099Z,3.80
2017-08-02T10:49:59.187Z,4.03
2017-08-02T10:52:26.822Z,3.70
2017-08-02T10:54:54.431Z,3.80
2017-08-02T10:57:22.137Z,3.63
2017-08-02T10:59:49.755Z,3.63
2017-08-02T11:02:17.408Z,4.00
2017-08-02T11:04:45.575Z,3.60
2017-08-02T11:07:13.342Z,3.57
2017-08-02T11:09:40.983Z,3.27
2017-08-02T11:12:08.678Z,3.70
2017-08-02T11:14:36.306Z,3.60
2017-08-02T11:17:03.962Z,3.40
2017-08-02T11:19:31.619Z,4.20
2017-08-02T11:21:59.265Z,3.17
2017-08-02T11:24:26.893Z,4.07
2017-08-02T11:26:54.549Z,3.43
2017-08-02T11:29:22.160Z,3.63
2017-08-02T11:31:49.829Z,3.40
2017-08-02T11:34:17.584Z,3.30
2017-08-02T11:36:45.250Z,3.57
2017-08-02T11:39:12.843Z,3.60
2017-08-02T11:41:40.855Z,3.50
2017-08-02T11:44:08.487Z,3.53
2017-08-02T11:46:36.100Z,3.87
2017-08-02T11:49:03.774Z,3.97
2017-08-02T11:51:31.389Z,3.90
2017-08-02T11:53:59.075Z,3.50
2017-08-02T11:56:26.706Z,3.67
2017-08-02T11:58:54.323Z,3.80
2017-08-02T12:01:21.938Z,3.83
2017-08-02T12:03:49.685Z,3.60
2017-08-02T12:06:17.392Z,3.40
2017-08-02T12:08:45.055Z,3.87
2017-08-02T12:11:12.822Z,3.80
2017-08-02T12:13:40.469Z,3.50
2017-08-02T12:16:08.109Z,3.20
2017-08-02T12:18:35.913Z,3.50
2017-08-02T12:24:05.857Z,3.40
2017-08-02T12:26:33.521Z,4.17
2017-08-02T12:29:01.186Z,4.10
2017-08-02T12:31:28.794Z,3.83
2017-08-02T12:33:56.423Z,3.57
